sensor_id;sensor_type;location;lat;lon;timestamp;P1;durP1;ratioP1;P2;durP2;ratioP2
55009;SDS011;40903;51.638;7.528;2023-09-30T00:02:16;10.10;;;3.57;;
55009;SDS011;40903;51.638;7.528;2023-09-30T00:04:41;8.43;;;3.87;;
55009;SDS011;40903;51.638;7.528;2023-09-30T00:07:06;7.90;;;3.93;;
55009;SDS011;40903;51.638;7.528;2023-09-30T00:09:32;6.27;;;3.87;;
55009;SDS011;40903;51.638;7.528;2023-09-30T00:11:58;10.63;;;4.63;;
55009;SDS011;40903;51.638;7.528;2023-09-30T00:14:24;9.23;;;4.43;;
55009;SDS011;40903;51.638;7.528;2023-09-30T00:16:51;6.57;;;3.47;;
55009;SDS011;40903;51.638;7.528;2023-09-30T00:19:16;10.93;;;5.10;;
55009;SDS011;40903;51.638;7.528;2023-09-30T00:21:42;9.67;;;3.93;;
55009;SDS011;40903;51.638;7.528;2023-09-30T00:24:07;8.10;;;3.77;;
55009;SDS011;40903;51.638;7.528;2023-09-30T00:26:34;7.90;;;3.70;;
55009;SDS011;40903;51.638;7.528;2023-09-30T00:28:59;9.23;;;4.00;;
55009;SDS011;40903;51.638;7.528;2023-09-30T00:31:25;8.43;;;3.80;;
55009;SDS011;40903;51.638;7.528;2023-09-30T00:33:50;8.90;;;3.93;;
55009;SDS011;40903;51.638;7.528;2023-09-30T00:36:16;8.20;;;3.77;;
55009;SDS011;40903;51.638;7.528;2023-09-30T00:38:41;6.00;;;3.50;;
55009;SDS011;40903;51.638;7.528;2023-09-30T00:41:07;4.83;;;3.50;;
55009;SDS011;40903;51.638;7.528;2023-09-30T00:43:32;7.63;;;4.00;;
55009;SDS011;40903;51.638;7.528;2023-09-30T00:46:06;7.90;;;4.10;;
55009;SDS011;40903;51.638;7.528;2023-09-30T00:48:43;7.63;;;3.67;;
55009;SDS011;40903;51.638;7.528;2023-09-30T00:51:09;9.87;;;4.13;;
55009;SDS011;40903;51.638;7.528;2023-09-30T00:53:35;8.20;;;3.80;;
55009;SDS011;40903;51.638;7.528;2023-09-30T00:56:01;7.67;;;4.10;;
55009;SDS011;40903;51.638;7.528;2023-09-30T00:58:29;11.00;;;4.47;;
55009;SDS011;40903;51.638;7.528;2023-09-30T01:00:56;7.37;;;4.20;;
55009;SDS011;40903;51.638;7.528;2023-09-30T01:03:22;10.63;;;4.43;;
55009;SDS011;40903;51.638;7.528;2023-09-30T01:05:49;8.47;;;4.27;;
55009;SDS011;40903;51.638;7.528;2023-09-30T01:08:14;9.50;;;4.10;;
55009;SDS011;40903;51.638;7.528;2023-09-30T01:10:41;7.87;;;4.27;;
55009;SDS011;40903;51.638;7.528;2023-09-30T01:13:07;10.37;;;4.23;;
55009;SDS011;40903;51.638;7.528;2023-09-30T01:15:32;7.10;;;4.30;;
55009;SDS011;40903;51.638;7.528;2023-09-30T01:17:58;9.10;;;4.40;;
55009;SDS011;40903;51.638;7.528;2023-09-30T01:20:24;6.47;;;3.90;;
55009;SDS011;40903;51.638;7.528;2023-09-30T01:22:49;10.77;;;4.40;;
55009;SDS011;40903;51.638;7.528;2023-09-30T01:25:15;6.63;;;4.40;;
55009;SDS011;40903;51.638;7.528;2023-09-30T01:27:40;8.83;;;4.50;;
55009;SDS011;40903;51.638;7.528;2023-09-30T01:30:06;8.23;;;4.37;;
55009;SDS011;40903;51.638;7.528;2023-09-30T01:32:36;7.27;;;4.13;;
55009;SDS011;40903;51.638;7.528;2023-09-30T01:35:02;7.13;;;4.03;;
55009;SDS011;40903;51.638;7.528;2023-09-30T01:37:28;6.83;;;3.97;;
55009;SDS011;40903;51.638;7.528;2023-09-30T01:39:54;9.80;;;4.93;;
55009;SDS011;40903;51.638;7.528;2023-09-30T01:42:20;11.33;;;4.50;;
55009;SDS011;40903;51.638;7.528;2023-09-30T01:44:45;5.90;;;4.10;;
55009;SDS011;40903;51.638;7.528;2023-09-30T01:47:11;11.03;;;4.73;;
55009;SDS011;40903;51.638;7.528;2023-09-30T01:49:36;10.90;;;4.80;;
55009;SDS011;40903;51.638;7.528;2023-09-30T01:52:02;8.67;;;4.73;;
55009;SDS011;40903;51.638;7.528;2023-09-30T01:54:27;7.47;;;3.70;;
55009;SDS011;40903;51.638;7.528;2023-09-30T01:56:53;7.33;;;4.23;;
55009;SDS011;40903;51.638;7.528;2023-09-30T01:59:18;6.53;;;4.30;;
55009;SDS011;40903;51.638;7.528;2023-09-30T02:01:44;8.30;;;4.77;;
55009;SDS011;40903;51.638;7.528;2023-09-30T02:04:11;11.23;;;4.97;;
55009;SDS011;40903;51.638;7.528;2023-09-30T02:06:41;9.93;;;4.23;;
55009;SDS011;40903;51.638;7.528;2023-09-30T02:09:06;6.20;;;3.83;;
55009;SDS011;40903;51.638;7.528;2023-09-30T02:11:34;10.03;;;4.67;;
55009;SDS011;40903;51.638;7.528;2023-09-30T02:14:01;9.87;;;4.80;;
55009;SDS011;40903;51.638;7.528;2023-09-30T02:16:27;9.63;;;4.90;;
55009;SDS011;40903;51.638;7.528;2023-09-30T02:18:52;12.77;;;5.20;;
55009;SDS011;40903;51.638;7.528;2023-09-30T02:21:18;10.37;;;5.17;;
55009;SDS011;40903;51.638;7.528;2023-09-30T02:23:44;7.43;;;4.57;;
55009;SDS011;40903;51.638;7.528;2023-09-30T02:26:13;8.13;;;4.63;;
55009;SDS011;40903;51.638;7.528;2023-09-30T02:28:39;13.70;;;5.67;;
55009;SDS011;40903;51.638;7.528;2023-09-30T02:31:05;7.87;;;4.60;;
55009;SDS011;40903;51.638;7.528;2023-09-30T02:33:32;9.40;;;4.87;;
55009;SDS011;40903;51.638;7.528;2023-09-30T02:36:00;8.43;;;4.47;;
55009;SDS011;40903;51.638;7.528;2023-09-30T02:38:26;10.10;;;5.50;;
55009;SDS011;40903;51.638;7.528;2023-09-30T02:40:51;8.33;;;4.90;;
55009;SDS011;40903;51.638;7.528;2023-09-30T02:43:17;8.87;;;5.20;;
55009;SDS011;40903;51.638;7.528;2023-09-30T02:45:42;8.53;;;4.73;;
55009;SDS011;40903;51.638;7.528;2023-09-30T02:48:08;13.40;;;5.23;;
55009;SDS011;40903;51.638;7.528;2023-09-30T02:50:35;10.40;;;5.33;;
55009;SDS011;40903;51.638;7.528;2023-09-30T02:53:00;16.10;;;5.93;;
55009;SDS011;40903;51.638;7.528;2023-09-30T02:55:26;9.50;;;5.23;;
55009;SDS011;40903;51.638;7.528;2023-09-30T02:57:51;6.70;;;4.67;;
55009;SDS011;40903;51.638;7.528;2023-09-30T03:00:18;8.97;;;5.27;;
55009;SDS011;40903;51.638;7.528;2023-09-30T03:02:55;9.67;;;4.90;;
55009;SDS011;40903;51.638;7.528;2023-09-30T03:05:22;9.83;;;5.07;;
55009;SDS011;40903;51.638;7.528;2023-09-30T03:07:52;9.57;;;4.97;;
55009;SDS011;40903;51.638;7.528;2023-09-30T03:10:18;14.33;;;5.63;;
55009;SDS011;40903;51.638;7.528;2023-09-30T03:12:48;13.27;;;5.57;;
55009;SDS011;40903;51.638;7.528;2023-09-30T03:15:15;9.33;;;4.90;;
55009;SDS011;40903;51.638;7.528;2023-09-30T03:17:41;12.77;;;5.60;;
55009;SDS011;40903;51.638;7.528;2023-09-30T03:20:07;11.40;;;5.00;;
55009;SDS011;40903;51.638;7.528;2023-09-30T03:22:36;10.77;;;5.20;;
55009;SDS011;40903;51.638;7.528;2023-09-30T03:25:03;9.87;;;5.47;;
55009;SDS011;40903;51.638;7.528;2023-09-30T03:27:32;9.07;;;5.33;;
55009;SDS011;40903;51.638;7.528;2023-09-30T03:29:58;10.67;;;4.90;;
55009;SDS011;40903;51.638;7.528;2023-09-30T03:32:23;10.27;;;5.70;;
55009;SDS011;40903;51.638;7.528;2023-09-30T03:34:50;13.53;;;5.60;;
55009;SDS011;40903;51.638;7.528;2023-09-30T03:37:15;13.27;;;5.80;;
55009;SDS011;40903;51.638;7.528;2023-09-30T03:39:40;12.53;;;5.00;;
55009;SDS011;40903;51.638;7.528;2023-09-30T03:42:06;7.73;;;5.23;;
55009;SDS011;40903;51.638;7.528;2023-09-30T03:44:32;10.07;;;4.80;;
55009;SDS011;40903;51.638;7.528;2023-09-30T03:46:57;9.37;;;4.50;;
55009;SDS011;40903;51.638;7.528;2023-09-30T03:49:24;10.17;;;4.83;;
55009;SDS011;40903;51.638;7.528;2023-09-30T03:51:51;9.77;;;5.40;;
55009;SDS011;40903;51.638;7.528;2023-09-30T03:54:18;10.10;;;5.03;;
55009;SDS011;40903;51.638;7.528;2023-09-30T03:56:44;11.50;;;5.00;;
55009;SDS011;40903;51.638;7.528;2023-09-30T03:59:11;12.23;;;5.73;;
55009;SDS011;40903;51.638;7.528;2023-09-30T04:01:37;8.37;;;5.63;;
55009;SDS011;40903;51.638;7.528;2023-09-30T04:04:05;10.87;;;6.07;;
55009;SDS011;40903;51.638;7.528;2023-09-30T04:06:32;9.60;;;4.77;;
55009;SDS011;40903;51.638;7.528;2023-09-30T04:08:57;7.93;;;4.80;;
55009;SDS011;40903;51.638;7.528;2023-09-30T04:11:25;8.93;;;5.43;;
55009;SDS011;40903;51.638;7.528;2023-09-30T04:13:50;8.07;;;4.80;;
55009;SDS011;40903;51.638;7.528;2023-09-30T04:16:15;11.83;;;5.97;;
55009;SDS011;40903;51.638;7.528;2023-09-30T04:18:43;10.77;;;5.00;;
55009;SDS011;40903;51.638;7.528;2023-09-30T04:21:09;9.57;;;5.60;;
55009;SDS011;40903;51.638;7.528;2023-09-30T04:23:36;9.87;;;5.77;;
55009;SDS011;40903;51.638;7.528;2023-09-30T04:26:02;12.60;;;5.53;;
55009;SDS011;40903;51.638;7.528;2023-09-30T04:28:28;9.87;;;4.93;;
55009;SDS011;40903;51.638;7.528;2023-09-30T04:30:53;10.70;;;6.00;;
55009;SDS011;40903;51.638;7.528;2023-09-30T04:33:19;10.93;;;5.43;;
55009;SDS011;40903;51.638;7.528;2023-09-30T04:35:45;8.27;;;4.50;;
55009;SDS011;40903;51.638;7.528;2023-09-30T04:38:10;8.23;;;4.83;;
55009;SDS011;40903;51.638;7.528;2023-09-30T04:40:36;13.57;;;5.87;;
55009;SDS011;40903;51.638;7.528;2023-09-30T04:43:02;11.37;;;5.73;;
55009;SDS011;40903;51.638;7.528;2023-09-30T04:45:31;11.37;;;5.00;;
55009;SDS011;40903;51.638;7.528;2023-09-30T04:47:56;8.50;;;4.97;;
55009;SDS011;40903;51.638;7.528;2023-09-30T04:50:22;12.60;;;5.67;;
55009;SDS011;40903;51.638;7.528;2023-09-30T04:52:49;8.03;;;5.07;;
55009;SDS011;40903;51.638;7.528;2023-09-30T04:55:16;7.77;;;4.40;;
55009;SDS011;40903;51.638;7.528;2023-09-30T04:57:42;10.00;;;4.57;;
55009;SDS011;40903;51.638;7.528;2023-09-30T05:00:10;14.70;;;5.87;;
55009;SDS011;40903;51.638;7.528;2023-09-30T05:02:37;9.50;;;4.53;;
55009;SDS011;40903;51.638;7.528;2023-09-30T05:05:02;8.87;;;5.77;;
55009;SDS011;40903;51.638;7.528;2023-09-30T05:07:31;7.20;;;4.63;;
55009;SDS011;40903;51.638;7.528;2023-09-30T05:09:56;9.50;;;4.57;;
55009;SDS011;40903;51.638;7.528;2023-09-30T05:12:22;10.60;;;4.97;;
55009;SDS011;40903;51.638;7.528;2023-09-30T05:14:48;10.40;;;5.13;;
55009;SDS011;40903;51.638;7.528;2023-09-30T05:17:14;10.47;;;5.30;;
55009;SDS011;40903;51.638;7.528;2023-09-30T05:19:39;9.53;;;5.17;;
55009;SDS011;40903;51.638;7.528;2023-09-30T05:22:04;7.90;;;4.60;;
55009;SDS011;40903;51.638;7.528;2023-09-30T05:24:30;10.40;;;4.90;;
55009;SDS011;40903;51.638;7.528;2023-09-30T05:26:56;10.00;;;4.53;;
55009;SDS011;40903;51.638;7.528;2023-09-30T05:29:22;11.40;;;4.70;;
55009;SDS011;40903;51.638;7.528;2023-09-30T05:31:48;9.67;;;4.97;;
55009;SDS011;40903;51.638;7.528;2023-09-30T05:34:13;8.10;;;4.63;;
55009;SDS011;40903;51.638;7.528;2023-09-30T05:36:39;12.13;;;5.77;;
55009;SDS011;40903;51.638;7.528;2023-09-30T05:39:04;10.40;;;5.07;;
55009;SDS011;40903;51.638;7.528;2023-09-30T05:41:30;9.20;;;4.87;;
55009;SDS011;40903;51.638;7.528;2023-09-30T05:43:56;18.33;;;6.60;;
55009;SDS011;40903;51.638;7.528;2023-09-30T05:46:22;12.73;;;5.97;;
55009;SDS011;40903;51.638;7.528;2023-09-30T05:48:47;11.33;;;6.00;;
55009;SDS011;40903;51.638;7.528;2023-09-30T05:51:13;12.67;;;6.00;;
55009;SDS011;40903;51.638;7.528;2023-09-30T05:53:43;12.40;;;5.10;;
55009;SDS011;40903;51.638;7.528;2023-09-30T05:56:09;10.40;;;5.10;;
55009;SDS011;40903;51.638;7.528;2023-09-30T05:58:36;7.13;;;4.47;;
55009;SDS011;40903;51.638;7.528;2023-09-30T06:01:06;9.23;;;5.20;;
55009;SDS011;40903;51.638;7.528;2023-09-30T06:03:35;9.93;;;4.80;;
55009;SDS011;40903;51.638;7.528;2023-09-30T06:06:09;8.40;;;5.10;;
55009;SDS011;40903;51.638;7.528;2023-09-30T06:08:35;7.97;;;4.43;;
55009;SDS011;40903;51.638;7.528;2023-09-30T06:11:02;8.90;;;4.60;;
55009;SDS011;40903;51.638;7.528;2023-09-30T06:13:27;10.00;;;4.87;;
55009;SDS011;40903;51.638;7.528;2023-09-30T06:15:56;12.77;;;5.03;;
55009;SDS011;40903;51.638;7.528;2023-09-30T06:18:21;10.90;;;5.20;;
55009;SDS011;40903;51.638;7.528;2023-09-30T06:20:47;7.97;;;4.13;;
55009;SDS011;40903;51.638;7.528;2023-09-30T06:23:14;10.40;;;4.13;;
55009;SDS011;40903;51.638;7.528;2023-09-30T06:25:41;10.90;;;5.73;;
55009;SDS011;40903;51.638;7.528;2023-09-30T06:28:07;17.53;;;6.03;;
55009;SDS011;40903;51.638;7.528;2023-09-30T06:30:34;7.97;;;4.50;;
55009;SDS011;40903;51.638;7.528;2023-09-30T06:33:00;7.70;;;4.63;;
55009;SDS011;40903;51.638;7.528;2023-09-30T06:35:27;9.37;;;5.20;;
55009;SDS011;40903;51.638;7.528;2023-09-30T06:37:55;7.63;;;4.43;;
55009;SDS011;40903;51.638;7.528;2023-09-30T06:40:20;10.30;;;5.13;;
55009;SDS011;40903;51.638;7.528;2023-09-30T06:42:45;16.27;;;5.63;;
55009;SDS011;40903;51.638;7.528;2023-09-30T06:45:10;8.87;;;4.70;;
55009;SDS011;40903;51.638;7.528;2023-09-30T06:47:38;10.57;;;5.70;;
55009;SDS011;40903;51.638;7.528;2023-09-30T06:50:08;14.10;;;6.50;;
55009;SDS011;40903;51.638;7.528;2023-09-30T06:52:39;15.73;;;6.70;;
55009;SDS011;40903;51.638;7.528;2023-09-30T06:55:06;16.70;;;5.87;;
55009;SDS011;40903;51.638;7.528;2023-09-30T06:57:33;10.73;;;5.67;;
55009;SDS011;40903;51.638;7.528;2023-09-30T06:59:59;14.27;;;5.57;;
55009;SDS011;40903;51.638;7.528;2023-09-30T07:02:25;11.83;;;6.00;;
55009;SDS011;40903;51.638;7.528;2023-09-30T07:04:51;9.73;;;5.53;;
55009;SDS011;40903;51.638;7.528;2023-09-30T07:07:17;8.30;;;5.30;;
55009;SDS011;40903;51.638;7.528;2023-09-30T07:09:43;10.37;;;5.07;;
55009;SDS011;40903;51.638;7.528;2023-09-30T07:12:09;11.40;;;5.87;;
55009;SDS011;40903;51.638;7.528;2023-09-30T07:14:35;9.63;;;4.97;;
55009;SDS011;40903;51.638;7.528;2023-09-30T07:17:00;11.40;;;5.90;;
55009;SDS011;40903;51.638;7.528;2023-09-30T07:19:25;13.57;;;5.77;;
55009;SDS011;40903;51.638;7.528;2023-09-30T07:21:51;10.23;;;5.00;;
55009;SDS011;40903;51.638;7.528;2023-09-30T07:24:16;13.77;;;5.80;;
55009;SDS011;40903;51.638;7.528;2023-09-30T07:26:41;13.43;;;5.93;;
55009;SDS011;40903;51.638;7.528;2023-09-30T07:29:08;9.97;;;5.20;;
55009;SDS011;40903;51.638;7.528;2023-09-30T07:31:37;14.10;;;5.83;;
55009;SDS011;40903;51.638;7.528;2023-09-30T07:34:03;12.43;;;5.53;;
55009;SDS011;40903;51.638;7.528;2023-09-30T07:36:28;16.30;;;5.50;;
55009;SDS011;40903;51.638;7.528;2023-09-30T07:38:54;13.50;;;5.33;;
55009;SDS011;40903;51.638;7.528;2023-09-30T07:41:20;9.53;;;4.70;;
55009;SDS011;40903;51.638;7.528;2023-09-30T07:43:45;12.90;;;5.13;;
55009;SDS011;40903;51.638;7.528;2023-09-30T07:46:11;10.73;;;5.00;;
55009;SDS011;40903;51.638;7.528;2023-09-30T07:48:36;15.30;;;5.80;;
55009;SDS011;40903;51.638;7.528;2023-09-30T07:51:01;14.73;;;5.63;;
55009;SDS011;40903;51.638;7.528;2023-09-30T07:53:27;11.03;;;4.80;;
55009;SDS011;40903;51.638;7.528;2023-09-30T07:55:54;13.83;;;5.40;;
55009;SDS011;40903;51.638;7.528;2023-09-30T07:58:20;9.03;;;4.87;;
55009;SDS011;40903;51.638;7.528;2023-09-30T08:00:45;14.73;;;5.73;;
55009;SDS011;40903;51.638;7.528;2023-09-30T08:03:11;11.23;;;5.20;;
55009;SDS011;40903;51.638;7.528;2023-09-30T08:05:36;14.03;;;6.07;;
55009;SDS011;40903;51.638;7.528;2023-09-30T08:08:02;11.40;;;5.10;;
55009;SDS011;40903;51.638;7.528;2023-09-30T08:10:28;12.77;;;4.93;;
55009;SDS011;40903;51.638;7.528;2023-09-30T08:12:56;12.03;;;4.57;;
55009;SDS011;40903;51.638;7.528;2023-09-30T08:15:23;12.30;;;6.03;;
55009;SDS011;40903;51.638;7.528;2023-09-30T08:17:49;12.30;;;4.87;;
55009;SDS011;40903;51.638;7.528;2023-09-30T08:20:16;12.23;;;5.90;;
55009;SDS011;40903;51.638;7.528;2023-09-30T08:22:41;10.43;;;5.63;;
55009;SDS011;40903;51.638;7.528;2023-09-30T08:25:07;9.40;;;4.87;;
55009;SDS011;40903;51.638;7.528;2023-09-30T08:27:33;10.97;;;4.80;;
55009;SDS011;40903;51.638;7.528;2023-09-30T08:29:59;11.30;;;5.13;;
55009;SDS011;40903;51.638;7.528;2023-09-30T08:32:24;12.77;;;5.53;;
55009;SDS011;40903;51.638;7.528;2023-09-30T08:34:50;11.80;;;5.07;;
55009;SDS011;40903;51.638;7.528;2023-09-30T08:37:15;11.50;;;5.50;;
55009;SDS011;40903;51.638;7.528;2023-09-30T08:39:42;13.10;;;4.43;;
55009;SDS011;40903;51.638;7.528;2023-09-30T08:42:11;12.80;;;4.70;;
55009;SDS011;40903;51.638;7.528;2023-09-30T08:44:37;14.40;;;5.27;;
55009;SDS011;40903;51.638;7.528;2023-09-30T08:47:05;10.10;;;4.60;;
55009;SDS011;40903;51.638;7.528;2023-09-30T08:49:34;11.60;;;4.90;;
55009;SDS011;40903;51.638;7.528;2023-09-30T08:52:02;13.57;;;6.07;;
55009;SDS011;40903;51.638;7.528;2023-09-30T08:54:29;14.17;;;5.73;;
55009;SDS011;40903;51.638;7.528;2023-09-30T08:56:55;12.33;;;5.27;;
55009;SDS011;40903;51.638;7.528;2023-09-30T08:59:21;16.83;;;5.47;;
55009;SDS011;40903;51.638;7.528;2023-09-30T09:01:48;10.43;;;4.40;;
55009;SDS011;40903;51.638;7.528;2023-09-30T09:04:13;9.87;;;4.87;;
55009;SDS011;40903;51.638;7.528;2023-09-30T09:06:39;10.70;;;4.97;;
55009;SDS011;40903;51.638;7.528;2023-09-30T09:09:18;10.20;;;5.07;;
55009;SDS011;40903;51.638;7.528;2023-09-30T09:11:44;10.77;;;5.17;;
55009;SDS011;40903;51.638;7.528;2023-09-30T09:14:11;9.13;;;4.63;;
55009;SDS011;40903;51.638;7.528;2023-09-30T09:16:52;9.87;;;4.93;;
55009;SDS011;40903;51.638;7.528;2023-09-30T09:19:22;7.27;;;3.37;;
55009;SDS011;40903;51.638;7.528;2023-09-30T09:21:54;8.83;;;3.53;;
55009;SDS011;40903;51.638;7.528;2023-09-30T09:24:34;8.83;;;3.50;;
55009;SDS011;40903;51.638;7.528;2023-09-30T09:27:10;7.90;;;4.10;;
55009;SDS011;40903;51.638;7.528;2023-09-30T09:29:37;9.70;;;4.17;;
55009;SDS011;40903;51.638;7.528;2023-09-30T09:32:11;9.03;;;3.83;;
55009;SDS011;40903;51.638;7.528;2023-09-30T09:34:38;8.10;;;4.03;;
55009;SDS011;40903;51.638;7.528;2023-09-30T09:37:14;7.33;;;4.53;;
55009;SDS011;40903;51.638;7.528;2023-09-30T09:39:54;9.87;;;4.43;;
55009;SDS011;40903;51.638;7.528;2023-09-30T09:42:29;9.70;;;3.30;;
55009;SDS011;40903;51.638;7.528;2023-09-30T09:44:56;8.67;;;3.53;;
55009;SDS011;40903;51.638;7.528;2023-09-30T09:47:23;5.83;;;2.70;;
55009;SDS011;40903;51.638;7.528;2023-09-30T09:49:50;10.30;;;3.37;;
55009;SDS011;40903;51.638;7.528;2023-09-30T09:52:16;9.07;;;4.00;;
55009;SDS011;40903;51.638;7.528;2023-09-30T09:54:44;7.57;;;3.40;;
55009;SDS011;40903;51.638;7.528;2023-09-30T09:57:10;7.63;;;3.03;;
55009;SDS011;40903;51.638;7.528;2023-09-30T09:59:36;6.87;;;3.47;;
55009;SDS011;40903;51.638;7.528;2023-09-30T10:02:05;8.07;;;2.90;;
55009;SDS011;40903;51.638;7.528;2023-09-30T10:04:36;6.07;;;3.07;;
55009;SDS011;40903;51.638;7.528;2023-09-30T10:07:02;6.67;;;3.10;;
55009;SDS011;40903;51.638;7.528;2023-09-30T10:09:31;7.57;;;3.10;;
55009;SDS011;40903;51.638;7.528;2023-09-30T10:12:00;7.80;;;3.07;;
55009;SDS011;40903;51.638;7.528;2023-09-30T10:14:30;5.60;;;2.83;;
55009;SDS011;40903;51.638;7.528;2023-09-30T10:16:57;6.60;;;3.13;;
55009;SDS011;40903;51.638;7.528;2023-09-30T10:19:23;5.93;;;2.60;;
55009;SDS011;40903;51.638;7.528;2023-09-30T10:24:44;6.00;;;3.30;;
55009;SDS011;40903;51.638;7.528;2023-09-30T10:29:57;6.77;;;2.73;;
55009;SDS011;40903;51.638;7.528;2023-09-30T10:35:15;5.63;;;2.83;;
55009;SDS011;40903;51.638;7.528;2023-09-30T10:40:52;5.97;;;2.83;;
55009;SDS011;40903;51.638;7.528;2023-09-30T10:43:35;6.93;;;2.73;;
55009;SDS011;40903;51.638;7.528;2023-09-30T10:46:02;7.13;;;2.93;;
55009;SDS011;40903;51.638;7.528;2023-09-30T10:48:32;5.30;;;3.30;;
55009;SDS011;40903;51.638;7.528;2023-09-30T10:50:59;6.60;;;3.40;;
55009;SDS011;40903;51.638;7.528;2023-09-30T10:53:46;5.93;;;3.17;;
55009;SDS011;40903;51.638;7.528;2023-09-30T10:56:21;7.13;;;3.47;;
55009;SDS011;40903;51.638;7.528;2023-09-30T10:58:48;8.63;;;3.70;;
55009;SDS011;40903;51.638;7.528;2023-09-30T11:01:17;8.70;;;3.30;;
55009;SDS011;40903;51.638;7.528;2023-09-30T11:03:44;6.73;;;3.20;;
55009;SDS011;40903;51.638;7.528;2023-09-30T11:06:11;5.50;;;2.70;;
55009;SDS011;40903;51.638;7.528;2023-09-30T11:08:44;8.80;;;3.03;;
55009;SDS011;40903;51.638;7.528;2023-09-30T11:11:12;6.23;;;2.50;;
55009;SDS011;40903;51.638;7.528;2023-09-30T11:13:39;4.43;;;2.30;;
55009;SDS011;40903;51.638;7.528;2023-09-30T11:16:05;8.73;;;2.97;;
55009;SDS011;40903;51.638;7.528;2023-09-30T11:18:31;4.47;;;2.40;;
55009;SDS011;40903;51.638;7.528;2023-09-30T11:21:10;5.93;;;3.03;;
55009;SDS011;40903;51.638;7.528;2023-09-30T11:23:38;5.67;;;3.07;;
55009;SDS011;40903;51.638;7.528;2023-09-30T11:26:04;5.87;;;2.70;;
55009;SDS011;40903;51.638;7.528;2023-09-30T11:28:40;6.07;;;2.80;;
55009;SDS011;40903;51.638;7.528;2023-09-30T11:31:15;7.27;;;3.33;;
55009;SDS011;40903;51.638;7.528;2023-09-30T11:33:49;5.50;;;2.80;;
55009;SDS011;40903;51.638;7.528;2023-09-30T11:36:18;7.17;;;3.13;;
55009;SDS011;40903;51.638;7.528;2023-09-30T11:38:45;5.60;;;3.27;;
55009;SDS011;40903;51.638;7.528;2023-09-30T11:41:15;5.13;;;2.87;;
55009;SDS011;40903;51.638;7.528;2023-09-30T11:46:55;7.77;;;3.10;;
55009;SDS011;40903;51.638;7.528;2023-09-30T11:49:39;3.47;;;2.47;;
55009;SDS011;40903;51.638;7.528;2023-09-30T11:52:09;4.77;;;2.37;;
55009;SDS011;40903;51.638;7.528;2023-09-30T11:54:41;5.97;;;3.30;;
55009;SDS011;40903;51.638;7.528;2023-09-30T11:57:17;6.70;;;3.20;;
55009;SDS011;40903;51.638;7.528;2023-09-30T11:59:44;8.00;;;3.90;;
55009;SDS011;40903;51.638;7.528;2023-09-30T12:02:11;7.43;;;3.33;;
55009;SDS011;40903;51.638;7.528;2023-09-30T12:04:39;5.87;;;3.70;;
55009;SDS011;40903;51.638;7.528;2023-09-30T12:07:05;5.67;;;3.00;;
55009;SDS011;40903;51.638;7.528;2023-09-30T12:09:34;6.27;;;2.73;;
55009;SDS011;40903;51.638;7.528;2023-09-30T12:12:02;5.73;;;2.47;;
55009;SDS011;40903;51.638;7.528;2023-09-30T12:14:28;7.03;;;3.87;;
55009;SDS011;40903;51.638;7.528;2023-09-30T12:16:55;6.23;;;3.17;;
55009;SDS011;40903;51.638;7.528;2023-09-30T12:19:20;5.30;;;2.80;;
55009;SDS011;40903;51.638;7.528;2023-09-30T12:21:46;7.43;;;3.53;;
55009;SDS011;40903;51.638;7.528;2023-09-30T12:24:16;5.60;;;2.97;;
55009;SDS011;40903;51.638;7.528;2023-09-30T12:26:47;6.17;;;2.77;;
55009;SDS011;40903;51.638;7.528;2023-09-30T12:29:20;7.23;;;3.00;;
55009;SDS011;40903;51.638;7.528;2023-09-30T12:31:47;5.00;;;2.57;;
55009;SDS011;40903;51.638;7.528;2023-09-30T12:34:14;5.93;;;2.97;;
55009;SDS011;40903;51.638;7.528;2023-09-30T12:36:39;7.03;;;3.30;;
55009;SDS011;40903;51.638;7.528;2023-09-30T12:39:05;8.00;;;3.50;;
55009;SDS011;40903;51.638;7.528;2023-09-30T12:41:39;6.37;;;2.87;;
55009;SDS011;40903;51.638;7.528;2023-09-30T12:44:05;6.10;;;2.77;;
55009;SDS011;40903;51.638;7.528;2023-09-30T12:46:35;6.23;;;2.50;;
55009;SDS011;40903;51.638;7.528;2023-09-30T12:49:02;6.80;;;2.50;;
55009;SDS011;40903;51.638;7.528;2023-09-30T12:51:28;5.27;;;2.60;;
55009;SDS011;40903;51.638;7.528;2023-09-30T12:53:54;6.10;;;2.90;;
55009;SDS011;40903;51.638;7.528;2023-09-30T12:56:19;5.33;;;2.87;;
55009;SDS011;40903;51.638;7.528;2023-09-30T12:58:45;6.70;;;2.77;;
55009;SDS011;40903;51.638;7.528;2023-09-30T13:01:10;6.40;;;2.67;;
55009;SDS011;40903;51.638;7.528;2023-09-30T13:03:36;6.20;;;2.70;;
55009;SDS011;40903;51.638;7.528;2023-09-30T13:06:02;6.33;;;2.93;;
55009;SDS011;40903;51.638;7.528;2023-09-30T13:08:28;5.23;;;2.50;;
55009;SDS011;40903;51.638;7.528;2023-09-30T13:10:59;6.73;;;2.40;;
55009;SDS011;40903;51.638;7.528;2023-09-30T13:13:27;4.07;;;2.53;;
55009;SDS011;40903;51.638;7.528;2023-09-30T13:15:53;6.10;;;2.63;;
55009;SDS011;40903;51.638;7.528;2023-09-30T13:18:18;4.40;;;2.80;;
55009;SDS011;40903;51.638;7.528;2023-09-30T13:20:44;4.07;;;2.40;;
55009;SDS011;40903;51.638;7.528;2023-09-30T13:23:09;6.20;;;2.47;;
55009;SDS011;40903;51.638;7.528;2023-09-30T13:25:35;3.30;;;2.10;;
55009;SDS011;40903;51.638;7.528;2023-09-30T13:28:00;6.17;;;2.40;;
55009;SDS011;40903;51.638;7.528;2023-09-30T13:30:26;4.70;;;2.30;;
55009;SDS011;40903;51.638;7.528;2023-09-30T13:32:51;5.07;;;2.67;;
55009;SDS011;40903;51.638;7.528;2023-09-30T13:35:16;8.27;;;2.50;;
55009;SDS011;40903;51.638;7.528;2023-09-30T13:37:42;4.30;;;2.27;;
55009;SDS011;40903;51.638;7.528;2023-09-30T13:40:07;6.97;;;3.07;;
55009;SDS011;40903;51.638;7.528;2023-09-30T13:42:33;4.17;;;2.33;;
55009;SDS011;40903;51.638;7.528;2023-09-30T13:44:59;5.03;;;2.90;;
55009;SDS011;40903;51.638;7.528;2023-09-30T13:47:25;5.90;;;2.77;;
55009;SDS011;40903;51.638;7.528;2023-09-30T13:49:51;3.67;;;2.50;;
55009;SDS011;40903;51.638;7.528;2023-09-30T13:52:16;5.10;;;2.90;;
55009;SDS011;40903;51.638;7.528;2023-09-30T13:54:42;7.33;;;3.27;;
55009;SDS011;40903;51.638;7.528;2023-09-30T13:57:07;3.93;;;2.47;;
55009;SDS011;40903;51.638;7.528;2023-09-30T13:59:34;7.33;;;3.40;;
55009;SDS011;40903;51.638;7.528;2023-09-30T14:02:00;5.43;;;2.80;;
55009;SDS011;40903;51.638;7.528;2023-09-30T14:04:25;4.83;;;2.43;;
55009;SDS011;40903;51.638;7.528;2023-09-30T14:06:51;4.07;;;2.77;;
55009;SDS011;40903;51.638;7.528;2023-09-30T14:09:16;5.17;;;3.17;;
55009;SDS011;40903;51.638;7.528;2023-09-30T14:11:41;4.90;;;3.00;;
55009;SDS011;40903;51.638;7.528;2023-09-30T14:14:09;5.53;;;3.00;;
55009;SDS011;40903;51.638;7.528;2023-09-30T14:16:35;5.03;;;3.17;;
55009;SDS011;40903;51.638;7.528;2023-09-30T14:19:00;5.40;;;2.97;;
55009;SDS011;40903;51.638;7.528;2023-09-30T14:21:26;4.60;;;2.83;;
55009;SDS011;40903;51.638;7.528;2023-09-30T14:23:51;4.27;;;2.93;;
55009;SDS011;40903;51.638;7.528;2023-09-30T14:26:17;5.77;;;3.00;;
55009;SDS011;40903;51.638;7.528;2023-09-30T14:28:42;6.63;;;3.80;;
55009;SDS011;40903;51.638;7.528;2023-09-30T14:31:07;5.23;;;3.33;;
55009;SDS011;40903;51.638;7.528;2023-09-30T14:33:32;4.77;;;3.07;;
55009;SDS011;40903;51.638;7.528;2023-09-30T14:35:59;6.87;;;2.93;;
55009;SDS011;40903;51.638;7.528;2023-09-30T14:38:24;5.40;;;3.47;;
55009;SDS011;40903;51.638;7.528;2023-09-30T14:40:50;4.60;;;3.00;;
55009;SDS011;40903;51.638;7.528;2023-09-30T14:43:16;3.70;;;3.07;;
55009;SDS011;40903;51.638;7.528;2023-09-30T14:45:41;6.77;;;2.77;;
55009;SDS011;40903;51.638;7.528;2023-09-30T14:48:07;5.70;;;3.30;;
55009;SDS011;40903;51.638;7.528;2023-09-30T14:50:34;3.70;;;2.70;;
55009;SDS011;40903;51.638;7.528;2023-09-30T14:53:01;6.37;;;3.63;;
55009;SDS011;40903;51.638;7.528;2023-09-30T14:55:27;4.67;;;3.23;;
55009;SDS011;40903;51.638;7.528;2023-09-30T14:57:54;4.10;;;2.90;;